Time;durP1;ratioP1;P1;durP2;ratioP2;P2;SDS_P1;SDS_P2;PMS_P1;PMS_P2;Temp;Humidity;BMP_temperature;BMP_pressure;BME280_temperature;BME280_humidity;BME280_pressure;Samples;Min_cycle;Max_cycle;Signal;HPM_P1;HPM_P2
2021/03/29 00:00:54;;;;;;;;;;;;;;;6.26;64.30;101593.97;115385;1203;21604;-56
2021/03/29 00:03:23;;;;;;;;;;;;;;;6.28;64.32;101594.34;115298;1203;21899;-58
2021/03/29 00:05:51;;;;;;;;;;;;;;;6.31;64.24;101599.03;115211;1203;21586;-57
2021/03/29 00:08:21;;;;;;;;;;;;;;;6.35;64.28;101599.00;115201;1203;21665;-57
2021/03/29 00:10:52;;;;;;;;;;;;;;;6.36;64.34;101595.80;115211;1203;21598;-55
2021/03/29 00:13:21;;;;;;;;;;;;;;;6.38;64.22;101592.60;115130;1201;21597;-55
2021/03/29 00:15:50;;;;;;;;;;;;;;;6.40;64.16;101602.08;115427;1203;21668;-57
2021/03/29 00:18:18;;;;;;;;;;;;;;;6.43;64.33;101600.47;115174;1203;21586;-57
2021/03/29 00:20:49;;;;;;;;;;;;;;;6.44;64.28;101593.70;115159;1203;21586;-56
2021/03/29 00:23:17;;;;;;;;;;;;;;;6.46;64.25;101591.30;115141;1202;21619;-58
2021/03/29 00:25:45;;;;;;;;;;;;;;;6.47;64.46;101598.42;115309;1201;24316;-56
2021/03/29 00:28:13;;;;;;;;;;;;;;;6.49;64.54;101593.25;115114;1203;21704;-57
2021/03/29 00:30:42;;;;;;;;;;;;;;;6.50;64.58;101598.37;115173;1203;21600;-58
2021/03/29 00:33:10;;;;;;;;;;;;;;;6.51;64.68;101599.95;115226;1203;21598;-55
2021/03/29 00:35:40;;;;;;;;;;;;;;;6.52;64.61;101606.27;115535;1201;21605;-58
2021/03/29 00:38:08;;;;;;;;;;;;;;;6.53;64.60;101599.53;115192;1200;21590;-58
2021/03/29 00:40:37;;;;;;;;;;;;;;;6.52;64.84;101607.06;115210;1200;21597;-57
2021/03/29 00:43:09;;;;;;;;;;;;;;;6.53;64.88;101605.08;115127;1201;21602;-58
2021/03/29 00:45:37;;;;;;;;;;;;;;;6.54;64.83;101601.08;115308;1201;21661;-56
2021/03/29 00:48:06;;;;;;;;;;;;;;;6.54;65.02;101601.08;115149;1203;21611;-57
2021/03/29 00:50:36;;;;;;;;;;;;;;;6.54;65.18;101601.08;115370;1203;21756;-57
2021/03/29 00:53:04;;;;;;;;;;;;;;;6.56;65.24;101603.45;115485;1203;23582;-58
2021/03/29 00:55:32;;;;;;;;;;;;;;;6.55;65.24;101605.44;115190;1199;24312;-54
2021/03/29 00:58:00;;;;;;;;;;;;;;;6.57;65.20;101600.26;115167;1203;21597;-57
2021/03/29 01:00:31;;;;;;;;;;;;;;;6.56;65.21;101598.67;115147;1201;21598;-56
2021/03/29 01:02:59;;;;;;;;;;;;;;;6.56;65.32;101604.22;115093;1203;21672;-57
2021/03/29 01:05:27;;;;;;;;;;;;;;;6.57;65.37;101597.48;115168;1203;21604;-56
2021/03/29 01:07:54;;;;;;;;;;;;;;;6.58;65.41;101601.05;115220;1199;24780;-58
2021/03/29 01:10:22;;;;;;;;;;;;;;;6.58;65.45;101595.50;115165;1201;28223;-58
2021/03/29 01:12:50;;;;;;;;;;;;;;;6.58;65.52;101596.27;115171;1201;21597;-56
2021/03/29 01:15:21;;;;;;;;;;;;;;;6.58;65.55;101589.95;115171;1201;21737;-57
2021/03/29 01:17:50;;;;;;;;;;;;;;;6.58;65.34;101585.16;115308;1201;21597;-56
2021/03/29 01:20:22;;;;;;;;;;;;;;;6.60;65.58;101584.77;115136;1201;21630;-58
2021/03/29 01:22:52;;;;;;;;;;;;;;;6.60;65.76;101582.00;115164;1203;21590;-57
2021/03/29 01:25:22;;;;;;;;;;;;;;;6.60;65.74;101582.76;115211;1203;25802;-57
2021/03/29 01:27:53;;;;;;;;;;;;;;;6.61;65.87;101578.00;115325;1202;21697;-58
2021/03/29 01:30:22;;;;;;;;;;;;;;;6.62;65.90;101579.58;115029;1202;27000;-58
2021/03/29 01:32:50;;;;;;;;;;;;;;;6.63;65.94;101581.93;115431;1201;21598;-57
2021/03/29 01:35:18;;;;;;;;;;;;;;;6.64;65.84;101575.19;115149;1201;24388;-58
2021/03/29 01:37:46;;;;;;;;;;;;;;;6.65;65.90;101576.75;115254;1201;24322;-58
2021/03/29 01:40:15;;;;;;;;;;;;;;;6.67;65.84;101571.56;115101;1203;21604;-57
2021/03/29 01:42:43;;;;;;;;;;;;;;;6.69;65.90;101574.70;115271;1203;21585;-57
2021/03/29 01:45:13;;;;;;;;;;;;;;;6.70;65.83;101565.19;115334;1202;25824;-56
2021/03/29 01:47:41;;;;;;;;;;;;;;;6.73;66.02;101563.53;115197;1200;24313;-58
2021/03/29 01:50:11;;;;;;;;;;;;;;;6.75;65.84;101556.36;115214;1201;21605;-57
2021/03/29 01:52:39;;;;;;;;;;;;;;;6.78;65.78;101554.74;115482;1201;23597;-57
2021/03/29 01:55:09;;;;;;;;;;;;;;;6.80;65.84;101555.11;115162;1203;21737;-57
2021/03/29 01:57:36;;;;;;;;;;;;;;;6.82;65.64;101547.14;115186;1202;21676;-57
2021/03/29 02:00:07;;;;;;;;;;;;;;;6.83;65.81;101557.05;115140;1203;25803;-57
2021/03/29 02:02:35;;;;;;;;;;;;;;;6.86;65.80;101554.20;115329;1201;24316;-57
2021/03/29 02:05:07;;;;;;;;;;;;;;;6.88;65.72;101551.00;115163;1200;24611;-57
2021/03/29 02:07:35;;;;;;;;;;;;;;;6.90;65.86;101556.91;115238;1203;23970;-57
2021/03/29 02:10:07;;;;;;;;;;;;;;;6.93;65.58;101544.98;115323;1203;24622;-58
2021/03/29 02:12:35;;;;;;;;;;;;;;;6.95;65.54;101550.89;115097;1203;21604;-59
2021/03/29 02:15:03;;;;;;;;;;;;;;;6.98;65.60;101541.70;115203;1203;24329;-56
2021/03/29 02:17:32;;;;;;;;;;;;;;;7.01;65.56;101546.42;115204;1203;24611;-57
2021/03/29 02:20:00;;;;;;;;;;;;;;;7.02;65.50;101551.55;115152;1203;25828;-57
2021/03/29 02:22:30;;;;;;;;;;;;;;;7.04;65.43;101554.68;115249;1203;21642;-57
2021/03/29 02:24:58;;;;;;;;;;;;;;;7.06;65.53;101548.70;115171;1200;23242;-57
2021/03/29 02:27:26;;;;;;;;;;;;;;;7.07;65.52;101550.28;115099;1203;21604;-58
2021/03/29 02:29:54;;;;;;;;;;;;;;;7.07;65.39;101551.07;115185;1203;21717;-57
2021/03/29 02:32:22;;;;;;;;;;;;;;;7.09;65.53;101554.21;115250;1202;21597;-56
2021/03/29 02:34:49;;;;;;;;;;;;;;;7.11;65.43;101554.57;115153;1203;27599;-55
2021/03/29 02:37:17;;;;;;;;;;;;;;;7.12;65.49;101553.34;115140;1203;21597;-55
2021/03/29 02:39:45;;;;;;;;;;;;;;;7.15;65.46;101557.27;115125;1203;21743;-56
2021/03/29 02:42:13;;;;;;;;;;;;;;;7.15;65.45;101543.39;115066;1199;23016;-56
2021/03/29 02:44:41;;;;;;;;;;;;;;;7.16;65.44;101548.51;115117;1203;21605;-57
2021/03/29 02:47:09;;;;;;;;;;;;;;;7.16;65.42;101545.73;115198;1203;24636;-55
2021/03/29 02:49:37;;;;;;;;;;;;;;;7.18;65.56;101546.09;115201;1202;21601;-57
2021/03/29 02:52:06;;;;;;;;;;;;;;;7.20;65.34;101542.91;115069;1201;25599;-57
2021/03/29 02:54:34;;;;;;;;;;;;;;;7.19;65.45;101533.79;115220;1196;21601;-57
2021/03/29 02:57:03;;;;;;;;;;;;;;;7.20;65.49;101540.90;115292;1201;21601;-58
2021/03/29 02:59:31;;;;;;;;;;;;;;;7.21;65.46;101542.48;115155;1199;23324;-58
2021/03/29 03:01:59;;;;;;;;;;;;;;;7.21;65.39;101541.69;115150;1203;21710;-57
2021/03/29 03:04:27;;;;;;;;;;;;;;;7.22;65.44;101535.70;115356;1199;23010;-57
2021/03/29 03:06:56;;;;;;;;;;;;;;;7.22;65.51;101546.81;115235;1203;24758;-58
2021/03/29 03:09:24;;;;;;;;;;;;;;;7.24;65.57;101549.19;115111;1203;21736;-55
2021/03/29 03:11:52;;;;;;;;;;;;;;;7.25;65.32;101550.73;115116;1203;25803;-57
2021/03/29 03:14:20;;;;;;;;;;;;;;;7.25;65.40;101554.30;115143;1203;21586;-57
2021/03/29 03:16:49;;;;;;;;;;;;;;;7.26;65.30;101557.88;115112;1203;25285;-57
2021/03/29 03:19:18;;;;;;;;;;;;;;;7.25;65.54;101548.75;115208;1203;21597;-57
2021/03/29 03:21:50;;;;;;;;;;;;;;;7.26;65.26;101547.53;115104;1203;21596;-58
2021/03/29 03:24:18;;;;;;;;;;;;;;;7.28;65.40;101555.45;115131;1203;21863;-57
2021/03/29 03:26:45;;;;;;;;;;;;;;;7.28;65.26;101555.45;115150;1200;23197;-58
2021/03/29 03:29:13;;;;;;;;;;;;;;;7.27;65.35;101543.55;115132;1203;21598;-57
2021/03/29 03:31:41;;;;;;;;;;;;;;;7.27;65.32;101545.55;115143;1203;21597;-58
2021/03/29 03:34:08;;;;;;;;;;;;;;;7.26;65.46;101544.75;115130;1201;21597;-57
2021/03/29 03:36:40;;;;;;;;;;;;;;;7.26;65.24;101547.53;115148;1196;24795;-57
2021/03/29 03:39:08;;;;;;;;;;;;;;;7.26;65.06;101546.77;115099;1203;24774;-58
2021/03/29 03:41:36;;;;;;;;;;;;;;;7.24;65.40;101546.41;115115;1203;21641;-57
2021/03/29 03:44:05;;;;;;;;;;;;;;;7.26;65.26;101543.98;115193;1203;21601;-57
2021/03/29 03:46:37;;;;;;;;;;;;;;;7.26;65.19;101538.44;115404;1201;21597;-60
2021/03/29 03:49:07;;;;;;;;;;;;;;;7.26;65.29;101539.20;115135;1196;24201;-57
2021/03/29 03:51:35;;;;;;;;;;;;;;;7.26;65.34;101539.20;115157;1203;21673;-57
2021/03/29 03:54:03;;;;;;;;;;;;;;;7.29;65.11;101545.91;115157;1196;25455;-57
2021/03/29 03:56:32;;;;;;;;;;;;;;;7.28;65.24;101545.11;115284;1202;21597;-57
2021/03/29 03:59:00;;;;;;;;;;;;;;;7.29;65.19;101532.02;115219;1201;21605;-57
2021/03/29 04:01:29;;;;;;;;;;;;;;;7.30;65.17;101536.38;115193;1203;21605;-58
2021/03/29 04:03:57;;;;;;;;;;;;;;;7.30;65.16;101548.24;115105;1203;21804;-58
2021/03/29 04:06:26;;;;;;;;;;;;;;;7.30;65.06;101545.47;115164;1196;24620;-57
2021/03/29 04:08:53;;;;;;;;;;;;;;;7.31;65.05;101546.26;115240;1201;21681;-58
2021/03/29 04:11:23;;;;;;;;;;;;;;;7.31;65.11;101549.83;115122;1203;24639;-57
2021/03/29 04:13:51;;;;;;;;;;;;;;;7.33;65.07;101552.17;115160;1200;24316;-57
2021/03/29 04:16:18;;;;;;;;;;;;;;;7.33;64.96;101541.06;115159;1201;21619;-58
2021/03/29 04:18:46;;;;;;;;;;;;;;;7.33;64.89;101552.97;115183;1201;21604;-57
2021/03/29 04:21:14;;;;;;;;;;;;;;;7.35;64.87;101552.53;115140;1201;21737;-62
2021/03/29 04:23:42;;;;;;;;;;;;;;;7.34;64.87;101548.96;115154;1202;21597;-57
2021/03/29 04:26:09;;;;;;;;;;;;;;;7.36;65.00;101551.34;115146;1203;21670;-58
2021/03/29 04:28:37;;;;;;;;;;;;;;;7.37;65.12;101557.69;115224;1202;21604;-56
2021/03/29 04:31:05;;;;;;;;;;;;;;;7.38;65.05;101559.23;115219;1203;21665;-57
2021/03/29 04:33:32;;;;;;;;;;;;;;;7.38;65.18;101562.02;115138;1201;21602;-57
2021/03/29 04:36:00;;;;;;;;;;;;;;;7.40;65.25;101559.59;115233;1203;24761;-56
2021/03/29 04:38:28;;;;;;;;;;;;;;;7.40;65.08;101563.16;115162;1203;21618;-57
2021/03/29 04:40:56;;;;;;;;;;;;;;;7.41;65.06;101547.29;115123;1203;26030;-59
2021/03/29 04:43:23;;;;;;;;;;;;;;;7.41;65.06;101550.83;115040;1203;21708;-60
2021/03/29 04:45:51;;;;;;;;;;;;;;;7.41;65.04;101556.38;115173;1200;21597;-60
2021/03/29 04:48:18;;;;;;;;;;;;;;;7.42;65.16;101552.41;115190;1203;25264;-57
2021/03/29 04:50:46;;;;;;;;;;;;;;;7.43;65.13;101555.98;115179;1201;24611;-58
2021/03/29 04:53:14;;;;;;;;;;;;;;;7.43;65.14;101555.98;115205;1203;21741;-58
2021/03/29 04:55:42;;;;;;;;;;;;;;;7.45;65.18;101554.32;115319;1203;21589;-58
2021/03/29 04:58:10;;;;;;;;;;;;;;;7.46;65.29;101547.56;115221;1203;21598;-58
2021/03/29 05:00:37;;;;;;;;;;;;;;;7.48;65.34;101552.69;115138;1201;25379;-58
2021/03/29 05:03:06;;;;;;;;;;;;;;;7.49;65.23;101559.83;115247;1201;21607;-58
2021/03/29 05:05:34;;;;;;;;;;;;;;;7.49;65.31;101568.17;115264;1203;26843;-58
2021/03/29 05:08:01;;;;;;;;;;;;;;;7.51;65.14;101565.74;115168;1203;21605;-58
2021/03/29 05:10:29;;;;;;;;;;;;;;;7.53;65.19;101569.64;115037;1203;21598;-58
2021/03/29 05:12:56;;;;;;;;;;;;;;;7.56;65.18;101570.80;115201;1203;24610;-58
2021/03/29 05:15:25;;;;;;;;;;;;;;;7.57;65.28;101572.38;115142;1203;21597;-59
2021/03/29 05:17:53;;;;;;;;;;;;;;;7.59;65.29;101579.08;115237;1203;21605;-58
2021/03/29 05:20:21;;;;;;;;;;;;;;;7.60;65.34;101580.63;115273;1203;26046;-57
2021/03/29 05:22:49;;;;;;;;;;;;;;;7.63;65.35;101579.00;115141;1201;21835;-58
2021/03/29 05:25:17;;;;;;;;;;;;;;;7.64;65.41;101584.13;115248;1203;21585;-59
2021/03/29 05:27:47;;;;;;;;;;;;;;;7.66;65.26;101592.83;115225;1201;24675;-58
2021/03/29 05:30:16;;;;;;;;;;;;;;;7.68;65.47;101593.18;115178;1203;24316;-58
2021/03/29 05:32:44;;;;;;;;;;;;;;;7.70;65.38;101587.19;115322;1201;21597;-58
2021/03/29 05:35:12;;;;;;;;;;;;;;;7.72;65.34;101595.88;115264;1203;24639;-59
2021/03/29 05:37:39;;;;;;;;;;;;;;;7.75;65.62;101592.26;115230;1203;26738;-58
2021/03/29 05:40:10;;;;;;;;;;;;;;;7.78;65.48;101586.63;115132;1202;25803;-59
2021/03/29 05:42:38;;;;;;;;;;;;;;;7.81;65.40;101588.56;115177;1203;21597;-59
2021/03/29 05:45:08;;;;;;;;;;;;;;;7.86;65.45;101590.06;115319;1200;26720;-59
2021/03/29 05:47:37;;;;;;;;;;;;;;;7.89;65.33;101603.89;115296;1203;21608;-58
2021/03/29 05:50:06;;;;;;;;;;;;;;;7.93;65.45;101603.80;115190;1203;21622;-59
2021/03/29 05:52:34;;;;;;;;;;;;;;;7.98;65.63;101603.31;115271;1200;21598;-58
2021/03/29 05:55:03;;;;;;;;;;;;;;;8.03;65.62;101600.02;115304;1201;21597;-59
2021/03/29 05:57:40;;;;;;;;;;;;;;;8.08;65.50;101605.88;115232;1199;23368;-58
2021/03/29 06:00:37;;;;;;;;;;;;;;;8.15;65.62;101604.95;115148;1202;21675;-57
2021/03/29 06:03:25;;;;;;;;;;;;;;;8.23;65.67;101603.58;115202;1204;25841;-58
2021/03/29 06:05:55;;;;;;;;;;;;;;;8.32;65.58;101606.58;115172;1204;21703;-59
2021/03/29 06:08:25;;;;;;;;;;;;;;;8.39;65.58;101603.66;115108;1204;21597;-60
2021/03/29 06:10:54;;;;;;;;;;;;;;;8.47;65.30;101601.48;115673;1202;23352;-59
2021/03/29 06:13:24;;;;;;;;;;;;;;;8.54;65.46;101607.69;115150;1205;21607;-59
2021/03/29 06:16:02;;;;;;;;;;;;;;;8.63;65.32;101615.42;115261;1203;23074;-60
2021/03/29 06:18:30;;;;;;;;;;;;;;;8.68;65.38;101606.57;115198;1204;21672;-59
2021/03/29 06:21:05;;;;;;;;;;;;;;;8.73;65.28;101604.05;115311;1204;21977;-59
2021/03/29 06:23:36;;;;;;;;;;;;;;;8.79;65.13;101607.88;115175;1205;24536;-59
2021/03/29 06:26:27;;;;;;;;;;;;;;;8.86;65.15;101616.08;115077;1205;21607;-59
2021/03/29 06:28:55;;;;;;;;;;;;;;;8.94;65.16;101613.89;114907;1202;23022;-59
2021/03/29 06:31:25;;;;;;;;;;;;;;;9.00;65.28;101614.17;114954;1205;21608;-59
2021/03/29 06:33:53;;;;;;;;;;;;;;;9.06;64.85;101609.64;115193;1205;24316;-60
2021/03/29 06:36:30;;;;;;;;;;;;;;;9.13;65.03;101609.45;115211;1204;21678;-59
2021/03/29 06:39:09;;;;;;;;;;;;;;;9.21;65.09;101619.98;115203;1202;26946;-60
2021/03/29 06:41:43;;;;;;;;;;;;;;;9.29;64.93;101606.67;115319;1200;23224;-60
2021/03/29 06:44:23;;;;;;;;;;;;;;;9.36;65.01;101607.27;115110;1196;24636;-60
2021/03/29 06:47:03;;;;;;;;;;;;;;;9.45;64.52;101610.22;115354;1199;23195;-58
2021/03/29 06:49:39;;;;;;;;;;;;;;;9.53;64.52;101610.80;115270;1201;21590;-58
2021/03/29 06:52:27;;;;;;;;;;;;;;;9.62;64.42;101608.17;115038;1201;21585;-59
2021/03/29 06:54:55;;;;;;;;;;;;;;;9.70;64.20;101612.34;115252;1200;21597;-59
2021/03/29 06:57:31;;;;;;;;;;;;;;;9.77;64.15;101615.70;114844;1203;21737;-59
2021/03/29 06:59:59;;;;;;;;;;;;;;;9.86;64.02;101617.06;115268;1196;25008;-58
2021/03/29 07:02:37;;;;;;;;;;;;;;;9.92;63.95;101606.93;114942;1203;21652;-59
2021/03/29 07:05:06;;;;;;;;;;;;;;;9.99;63.64;101609.53;115038;1201;24322;-59
2021/03/29 07:07:36;;;;;;;;;;;;;;;10.05;63.49;101607.76;115482;1201;24671;-59
2021/03/29 07:10:07;;;;;;;;;;;;;;;10.11;63.26;101612.38;115095;1203;24459;-59
2021/03/29 07:12:37;;;;;;;;;;;;;;;10.18;63.38;101612.16;115529;1201;21668;-59
2021/03/29 07:15:07;;;;;;;;;;;;;;;10.24;63.02;101620.79;115344;1203;21602;-60
2021/03/29 07:17:37;;;;;;;;;;;;;;;10.31;62.96;101620.56;115177;1201;25229;-59
2021/03/29 07:20:07;;;;;;;;;;;;;;;10.38;63.17;101620.36;115040;1203;21774;-59
2021/03/29 07:22:37;;;;;;;;;;;;;;;10.45;62.79;101614.55;115164;1203;21857;-59
2021/03/29 07:25:06;;;;;;;;;;;;;;;10.54;62.83;101631.43;115106;1203;21665;-59
2021/03/29 07:27:38;;;;;;;;;;;;;;;10.63;62.93;101616.81;115116;1203;21593;-59
2021/03/29 07:30:07;;;;;;;;;;;;;;;10.71;62.28;101618.14;115237;1203;21597;-59
2021/03/29 07:32:36;;;;;;;;;;;;;;;10.79;62.24;101619.48;115225;1202;22289;-59
2021/03/29 07:35:05;;;;;;;;;;;;;;;10.86;62.15;101620.05;115390;1201;21736;-59
2021/03/29 07:37:37;;;;;;;;;;;;;;;10.92;62.28;101626.64;115221;1203;21637;-58
2021/03/29 07:40:08;;;;;;;;;;;;;;;11.01;62.40;101625.94;115197;1203;24343;-59
2021/03/29 07:42:37;;;;;;;;;;;;;;;11.08;61.66;101625.72;115204;1200;21693;-59
2021/03/29 07:45:07;;;;;;;;;;;;;;;11.17;61.65;101620.24;115249;1202;21636;-59
2021/03/29 07:47:39;;;;;;;;;;;;;;;11.26;61.90;101628.70;115270;1200;21598;-60
2021/03/29 07:50:08;;;;;;;;;;;;;;;11.32;60.80;101619.30;115211;1201;21611;-59
2021/03/29 07:52:39;;;;;;;;;;;;;;;11.38;60.88;101627.89;115099;1199;23232;-59
2021/03/29 07:55:17;;;;;;;;;;;;;;;11.46;60.76;101631.24;115104;1201;21738;-59
2021/03/29 07:58:05;;;;;;;;;;;;;;;11.52;60.71;101635.02;115181;1203;26073;-59
2021/03/29 08:01:06;;;;;;;;;;;;;;;11.58;60.39;101636.80;115076;1196;21666;-58
2021/03/29 08:03:41;;;;;;;;;;;;;;;11.65;60.00;101633.73;115087;1200;24312;-58
2021/03/29 08:06:23;;;;;;;;;;;;;;;11.75;60.02;101637.45;115153;1203;21600;-59
2021/03/29 08:08:54;;;;;;;;;;;;;;;11.84;59.56;101640.30;115109;1203;21597;-62
2021/03/29 08:11:22;;;;;;;;;;;;;;;11.93;59.45;101640.38;115153;1203;21668;-60
2021/03/29 08:13:53;;;;;;;;;;;;;;;12.01;59.38;101644.48;115066;1200;25921;-60
2021/03/29 08:16:31;;;;;;;;;;;;;;;12.10;58.94;101636.16;115132;1196;25841;-61
2021/03/29 08:19:14;;;;;;;;;;;;;;;12.21;59.22;101641.37;115590;1202;25590;-60
2021/03/29 08:21:46;;;;;;;;;;;;;;;12.32;57.90;101636.13;115089;1203;21713;-60
2021/03/29 08:24:21;;;;;;;;;;;;;;;12.40;57.68;101641.01;115363;1203;21642;-61
2021/03/29 08:26:50;;;;;;;;;;;;;;;12.47;57.47;101645.56;115172;1201;24420;-59
2021/03/29 08:29:27;;;;;;;;;;;;;;;12.50;57.08;101641.83;115375;1201;21604;-58
2021/03/29 08:32:08;;;;;;;;;;;;;;;12.53;56.75;101649.33;115118;1201;21886;-59
2021/03/29 08:34:36;;;;;;;;;;;;;;;12.56;57.23;101654.79;115462;1203;21820;-59
2021/03/29 08:37:05;;;;;;;;;;;;;;;12.58;56.89;101657.91;115375;1203;24391;-60
2021/03/29 08:39:35;;;;;;;;;;;;;;;12.58;56.44;101657.91;115155;1203;21737;-59
2021/03/29 08:42:04;;;;;;;;;;;;;;;12.56;55.88;101659.63;115312;1203;21740;-60
2021/03/29 08:44:32;;;;;;;;;;;;;;;12.52;55.88;101662.55;115277;1201;21668;-60
2021/03/29 08:47:00;;;;;;;;;;;;;;;12.51;56.07;101660.21;115100;1202;25777;-59
2021/03/29 08:49:28;;;;;;;;;;;;;;;12.48;55.72;101664.70;115274;1199;23370;-59
2021/03/29 08:51:58;;;;;;;;;;;;;;;12.47;55.65;101663.16;115150;1201;21609;-59
2021/03/29 08:54:26;;;;;;;;;;;;;;;12.45;55.46;101673.25;115185;1202;21597;-58
2021/03/29 08:57:01;;;;;;;;;;;;;;;12.44;55.78;101677.27;115246;1196;22401;-59
2021/03/29 08:59:30;;;;;;;;;;;;;;;12.45;55.60;101673.25;115129;1201;26389;-60
2021/03/29 09:02:12;;;;;;;;;;;;;;;12.45;55.38;101678.85;115730;1201;21695;-60
2021/03/29 09:04:52;;;;;;;;;;;;;;;12.47;55.54;101670.77;115729;1202;24562;-62
2021/03/29 09:07:45;;;;;;;;;;;;;;;12.50;55.72;101678.24;115398;1200;23057;-59
2021/03/29 09:10:20;;;;;;;;;;;;;;;12.53;55.60;101674.54;116037;1200;21585;-62
2021/03/29 09:12:54;;;;;;;;;;;;;;;12.57;55.56;101672.38;116180;1202;24775;-61
2021/03/29 09:15:23;;;;;;;;;;;;;;;12.61;55.48;101678.63;115689;1200;21597;-60
2021/03/29 09:18:06;;;;;;;;;;;;;;;12.65;55.40;101679.27;116092;1201;21597;-60
2021/03/29 09:20:35;;;;;;;;;;;;;;;12.67;55.14;101674.78;115619;1202;21773;-61
2021/03/29 09:23:04;;;;;;;;;;;;;;;12.70;55.40;101675.89;115544;1200;21752;-59
2021/03/29 09:25:34;;;;;;;;;;;;;;;12.74;55.16;101682.13;115625;1201;21600;-59
2021/03/29 09:28:15;;;;;;;;;;;;;;;12.80;55.28;101675.48;115537;1196;24370;-60
2021/03/29 09:30:43;;;;;;;;;;;;;;;12.82;55.39;101694.63;115675;1199;23259;-60
2021/03/29 09:33:13;;;;;;;;;;;;;;;12.82;55.24;101689.02;115596;1201;21706;-61
2021/03/29 09:35:42;;;;;;;;;;;;;;;12.82;55.19;101692.61;115448;1200;24313;-60
2021/03/29 09:38:11;;;;;;;;;;;;;;;12.81;55.69;101699.44;115534;1201;21594;-60
2021/03/29 09:40:39;;;;;;;;;;;;;;;12.82;55.51;101703.03;115975;1201;21672;-60
2021/03/29 09:43:19;;;;;;;;;;;;;;;12.84;55.61;101692.14;115326;1202;21780;-61
2021/03/29 09:45:47;;;;;;;;;;;;;;;12.85;55.79;101699.30;115233;1200;21597;-60
2021/03/29 09:48:15;;;;;;;;;;;;;;;12.90;55.74;101704.31;115087;1203;24985;-60
2021/03/29 09:50:44;;;;;;;;;;;;;;;12.92;56.01;101697.02;115406;1201;21598;-59
2021/03/29 09:53:13;;;;;;;;;;;;;;;12.95;55.44;101703.73;115472;1201;21665;-59
2021/03/29 09:55:45;;;;;;;;;;;;;;;12.97;55.89;101706.85;115411;1201;21736;-60
2021/03/29 09:58:27;;;;;;;;;;;;;;;13.01;56.22;101697.03;115211;1203;21665;-58
2021/03/29 10:00:56;;;;;;;;;;;;;;;13.05;55.95;101705.36;115252;1200;24344;-59
2021/03/29 10:03:24;;;;;;;;;;;;;;;13.07;56.61;101700.07;115097;1201;25914;-61
2021/03/29 10:05:52;;;;;;;;;;;;;;;13.11;56.88;101700.70;115150;1203;24758;-60
2021/03/29 10:08:28;;;;;;;;;;;;;;;13.17;56.88;101698.86;115238;1203;21608;-61
2021/03/29 10:11:00;;;;;;;;;;;;;;;13.17;56.52;101692.46;115299;1201;25831;-60
2021/03/29 10:13:32;;;;;;;;;;;;;;;13.15;56.28;101692.93;115212;1200;23237;-60
2021/03/29 10:16:14;;;;;;;;;;;;;;;13.14;56.55;101696.96;115231;1203;21604;-60
2021/03/29 10:18:42;;;;;;;;;;;;;;;13.15;56.70;101700.55;115207;1200;26920;-59
2021/03/29 10:21:12;;;;;;;;;;;;;;;13.15;56.39;101703.36;115305;1203;24971;-59
2021/03/29 10:23:41;;;;;;;;;;;;;;;13.15;57.04;101701.34;115116;1200;21842;-59
2021/03/29 10:26:18;;;;;;;;;;;;;;;13.18;56.62;101703.20;115123;1203;21651;-58
2021/03/29 10:28:56;;;;;;;;;;;;;;;13.19;57.05;101698.39;115355;1203;21604;-60
2021/03/29 10:31:25;;;;;;;;;;;;;;;13.19;57.02;101699.17;115374;1201;21581;-62
2021/03/29 10:33:53;;;;;;;;;;;;;;;13.15;57.11;101690.13;115207;1203;21597;-60
2021/03/29 10:36:21;;;;;;;;;;;;;;;13.13;57.33;101692.61;115817;1202;21669;-60
2021/03/29 10:38:50;;;;;;;;;;;;;;;13.12;57.63;101695.89;115712;1200;21604;-61
2021/03/29 10:41:18;;;;;;;;;;;;;;;13.08;58.17;101687.59;115764;1199;22870;-61
2021/03/29 10:43:46;;;;;;;;;;;;;;;13.09;58.45;101682.78;115675;1201;21608;-61
2021/03/29 10:46:16;;;;;;;;;;;;;;;13.05;58.20;101690.55;115789;1202;21758;-62
2021/03/29 10:48:45;;;;;;;;;;;;;;;13.00;58.32;101691.90;115458;1200;21765;-60
2021/03/29 10:51:12;;;;;;;;;;;;;;;12.98;58.79;101686.77;115371;1201;21601;-60
2021/03/29 10:53:41;;;;;;;;;;;;;;;12.99;58.83;101684.75;115673;1201;24357;-62
2021/03/29 10:56:09;;;;;;;;;;;;;;;13.00;58.70;101687.08;115577;1201;21601;-60
2021/03/29 10:58:37;;;;;;;;;;;;;;;13.04;58.96;101686.95;115685;1197;21756;-60
2021/03/29 11:01:04;;;;;;;;;;;;;;;13.05;58.43;101688.53;115472;1201;21992;-58
2021/03/29 11:03:32;;;;;;;;;;;;;;;13.06;58.42;101686.49;115454;1200;21604;-60
2021/03/29 11:06:00;;;;;;;;;;;;;;;13.05;58.36;101688.53;115411;1200;23063;-58
2021/03/29 11:08:33;;;;;;;;;;;;;;;13.01;58.45;101685.82;115550;1201;24676;-60
2021/03/29 11:11:08;;;;;;;;;;;;;;;12.97;58.84;101682.38;115400;1201;25834;-60
2021/03/29 11:13:36;;;;;;;;;;;;;;;12.95;58.91;101684.87;115544;1201;23418;-62
2021/03/29 11:16:09;;;;;;;;;;;;;;;12.99;59.41;101687.55;115553;1200;25136;-60
2021/03/29 11:18:37;;;;;;;;;;;;;;;13.01;59.09;101687.87;115530;1196;23018;-59
2021/03/29 11:21:05;;;;;;;;;;;;;;;13.04;59.31;101689.77;115499;1196;24316;-59
2021/03/29 11:23:33;;;;;;;;;;;;;;;13.07;59.52;101682.46;115420;1202;21737;-59
2021/03/29 11:26:02;;;;;;;;;;;;;;;13.09;59.20;101685.58;115450;1202;21709;-60
2021/03/29 11:28:30;;;;;;;;;;;;;;;13.09;58.94;101675.16;115695;1201;21736;-60
2021/03/29 11:30:59;;;;;;;;;;;;;;;13.13;59.28;101684.20;115555;1203;25953;-61
2021/03/29 11:33:27;;;;;;;;;;;;;;;13.18;59.24;101674.41;115704;1199;23321;-64
2021/03/29 11:35:56;;;;;;;;;;;;;;;13.26;59.83;101684.88;115561;1200;21598;-64
2021/03/29 11:38:24;;;;;;;;;;;;;;;13.34;59.46;101680.53;115273;1203;21605;-63
2021/03/29 11:40:52;;;;;;;;;;;;;;;13.41;59.19;101680.22;115980;1200;21684;-60
2021/03/29 11:43:20;;;;;;;;;;;;;;;13.47;59.08;101677.60;115403;1199;23010;-61
2021/03/29 11:45:48;;;;;;;;;;;;;;;13.50;58.49;101674.64;115442;1201;21597;-62
2021/03/29 11:48:16;;;;;;;;;;;;;;;13.56;58.96;101672.78;115610;1201;21589;-61
2021/03/29 11:50:44;;;;;;;;;;;;;;;13.60;58.31;101676.21;115342;1202;24331;-60
2021/03/29 11:53:12;;;;;;;;;;;;;;;13.64;58.87;101668.42;118520;1202;22107;-61
2021/03/29 11:55:40;;;;;;;;;;;;;;;13.73;58.77;101668.44;115803;1202;26719;-60
2021/03/29 11:58:08;;;;;;;;;;;;;;;13.79;57.32;101660.17;115842;1201;21598;-59
2021/03/29 12:00:47;;;;;;;;;;;;;;;13.79;58.04;101658.15;115596;1203;21608;-61
2021/03/29 12:03:21;;;;;;;;;;;;;;;13.82;57.91;101650.83;115546;1201;21862;-63
2021/03/29 12:05:52;;;;;;;;;;;;;;;13.82;58.65;101650.04;115660;1202;21601;-61
2021/03/29 12:08:30;;;;;;;;;;;;;;;13.87;59.58;101647.38;115666;1201;21597;-59
2021/03/29 12:13:46;;;;;;;;;;;;;;;13.92;59.46;101641.16;115630;1201;24312;-59
2021/03/29 12:16:15;;;;;;;;;;;;;;;13.95;60.17;101642.22;115768;1203;21665;-60
2021/03/29 12:18:45;;;;;;;;;;;;;;;13.93;59.02;101639.89;115684;1200;24646;-59
2021/03/29 12:21:15;;;;;;;;;;;;;;;13.91;59.55;101635.98;115560;1199;23330;-59
2021/03/29 12:23:44;;;;;;;;;;;;;;;13.89;59.20;101627.25;115436;1200;23208;-61
2021/03/29 12:26:12;;;;;;;;;;;;;;;13.90;59.28;101623.21;115680;1201;21602;-61
2021/03/29 12:28:44;;;;;;;;;;;;;;;13.93;59.26;101616.64;115568;1202;21572;-61
2021/03/29 12:31:13;;;;;;;;;;;;;;;14.00;59.76;101617.13;115586;1200;21597;-59
2021/03/29 12:33:41;;;;;;;;;;;;;;;14.07;59.67;101616.03;115535;1201;22839;-60
2021/03/29 12:36:10;;;;;;;;;;;;;;;14.11;59.65;101611.03;115616;1201;21665;-60
2021/03/29 12:38:41;;;;;;;;;;;;;;;14.14;59.30;101604.45;115653;1200;21764;-61
2021/03/29 12:41:11;;;;;;;;;;;;;;;14.18;59.70;101597.42;115638;1201;21601;-62
2021/03/29 12:43:42;;;;;;;;;;;;;;;14.25;59.03;101599.13;115767;1201;25834;-59
2021/03/29 12:46:12;;;;;;;;;;;;;;;14.30;58.46;101585.25;115651;1201;21676;-61
2021/03/29 12:48:43;;;;;;;;;;;;;;;14.35;58.77;101586.65;115637;1200;24363;-61
2021/03/29 12:51:12;;;;;;;;;;;;;;;14.36;58.93;101583.36;115626;1201;21740;-60